EZY51XB EGCC-LEBB
Flight info
| Callsign | EZY51XB |
|---|---|
| Flight time | 1h 41m |
| Altitude | 31000 |
| Route | ASMIM DCT NOKIN P17 BEPHE DCT OSSEP DCT ELNIF DCT ZESPE DCT DAWLY DCT BHD DCT SALCO DCT NENEM N867 MAPAX |
| Aircraft | A320/M-SDE3FGHIRWY/LB1 |
Departure
| Time | 2026-05-05 20:19 |
|---|---|
| Airport | Manchester Airport (EGCC) |
Arrival
| Time | 2026-05-05 22:01 |
|---|---|
| Airport | Bilbao Airport (LEBB) |
| Time | Latitude | Longitude | Altitude | Speed | Heading |
|---|---|---|---|---|---|
| 2026-05-05 19:46 | 53.36603 | -2.28359 | 255 ft | 0 kts | 315° |
| 2026-05-05 19:57 | 53.36603 | -2.28358 | 255 ft | 1 kts | 315° |
| 2026-05-05 19:57 | 53.36579 | -2.28321 | 255 ft | 4 kts | 319° |
| 2026-05-05 19:57 | 53.36559 | -2.28291 | 255 ft | 4 kts | 314° |
| 2026-05-05 19:58 | 53.36545 | -2.28259 | 255 ft | 4 kts | 270° |
| 2026-05-05 19:58 | 53.36548 | -2.28242 | 255 ft | 1 kts | 225° |
| 2026-05-05 19:58 | 53.36549 | -2.28240 | 255 ft | 0 kts | 225° |
| 2026-05-05 20:00 | 53.36531 | -2.28270 | 255 ft | 10 kts | 225° |
| 2026-05-05 20:00 | 53.36485 | -2.28346 | 255 ft | 9 kts | 224° |
| 2026-05-05 20:01 | 53.36450 | -2.28365 | 255 ft | 0 kts | 192° |
| 2026-05-05 20:12 | 53.36449 | -2.28366 | 255 ft | 0 kts | 192° |
| 2026-05-05 20:13 | 53.36426 | -2.28394 | 255 ft | 10 kts | 223° |
| 2026-05-05 20:13 | 53.36326 | -2.28438 | 255 ft | 16 kts | 135° |
| 2026-05-05 20:14 | 53.36230 | -2.28274 | 255 ft | 31 kts | 134° |
| 2026-05-05 20:14 | 53.36068 | -2.28015 | 255 ft | 32 kts | 141° |
| 2026-05-05 20:14 | 53.35880 | -2.27857 | 254 ft | 32 kts | 186° |
| 2026-05-05 20:14 | 53.35650 | -2.27891 | 242 ft | 24 kts | 187° |
| 2026-05-05 20:15 | 53.35543 | -2.28065 | 239 ft | 32 kts | 225° |
| 2026-05-05 20:15 | 53.35336 | -2.28189 | 234 ft | 33 kts | 197° |
| 2026-05-05 20:15 | 53.35197 | -2.28373 | 230 ft | 26 kts | 232° |
| 2026-05-05 20:15 | 53.35053 | -2.28670 | 230 ft | 35 kts | 231° |
| 2026-05-05 20:16 | 53.34877 | -2.28982 | 221 ft | 39 kts | 226° |
| 2026-05-05 20:16 | 53.34738 | -2.29252 | 216 ft | 25 kts | 231° |
| 2026-05-05 20:16 | 53.34671 | -2.29333 | 211 ft | 0 kts | 198° |
| 2026-05-05 20:17 | 53.34601 | -2.29341 | 213 ft | 28 kts | 172° |
| 2026-05-05 20:17 | 53.34553 | -2.29203 | 218 ft | 10 kts | 43° |
| 2026-05-05 20:17 | 53.34563 | -2.29178 | 217 ft | 0 kts | 55° |
| 2026-05-05 20:18 | 53.34692 | -2.28909 | 220 ft | 67 kts | 51° |
| 2026-05-05 20:19 | 53.35120 | -2.28021 | 233 ft | 127 kts | 51° |
| 2026-05-05 20:19 | 53.35747 | -2.26739 | 627 ft | 144 kts | 51° |
| 2026-05-05 20:19 | 53.36377 | -2.25456 | 1433 ft | 143 kts | 50° |
| 2026-05-05 20:19 | 53.37020 | -2.24138 | 2064 ft | 153 kts | 52° |
| 2026-05-05 20:20 | 53.37736 | -2.22648 | 2459 ft | 176 kts | 53° |
| 2026-05-05 20:20 | 53.38655 | -2.21083 | 2874 ft | 203 kts | 36° |
| 2026-05-05 20:20 | 53.40060 | -2.20251 | 3330 ft | 233 kts | 7° |
| 2026-05-05 20:20 | 53.41717 | -2.20845 | 3867 ft | 258 kts | 330° |
| 2026-05-05 20:21 | 53.42968 | -2.23023 | 4782 ft | 266 kts | 296° |
| 2026-05-05 20:21 | 53.43361 | -2.26043 | 5779 ft | 268 kts | 274° |
| 2026-05-05 20:21 | 53.43585 | -2.29144 | 6796 ft | 268 kts | 281° |
| 2026-05-05 20:21 | 53.44122 | -2.32135 | 7761 ft | 269 kts | 294° |
| 2026-05-05 20:22 | 53.44943 | -2.34970 | 8720 ft | 271 kts | 297° |
| 2026-05-05 20:22 | 53.45797 | -2.37797 | 9677 ft | 273 kts | 298° |
| 2026-05-05 20:22 | 53.46635 | -2.40688 | 10538 ft | 277 kts | 291° |
| 2026-05-05 20:22 | 53.46931 | -2.43899 | 11331 ft | 284 kts | 268° |
| 2026-05-05 20:23 | 53.46642 | -2.47300 | 11745 ft | 306 kts | 262° |
| 2026-05-05 20:23 | 53.46251 | -2.50956 | 12016 ft | 328 kts | 261° |
| 2026-05-05 20:23 | 53.45817 | -2.54770 | 12646 ft | 337 kts | 261° |
| 2026-05-05 20:23 | 53.45280 | -2.58621 | 13395 ft | 343 kts | 252° |
| 2026-05-05 20:24 | 53.44223 | -2.62243 | 14093 ft | 350 kts | 238° |
| 2026-05-05 20:24 | 53.42623 | -2.65355 | 14777 ft | 356 kts | 223° |
| 2026-05-05 20:24 | 53.40566 | -2.67721 | 15470 ft | 362 kts | 208° |
| 2026-05-05 20:24 | 53.38216 | -2.69311 | 16173 ft | 366 kts | 202° |
| 2026-05-05 20:25 | 53.35820 | -2.70806 | 16878 ft | 369 kts | 202° |
| 2026-05-05 20:25 | 53.33407 | -2.72306 | 17576 ft | 371 kts | 202° |
| 2026-05-05 20:25 | 53.30977 | -2.73818 | 18268 ft | 374 kts | 202° |
| 2026-05-05 20:25 | 53.28530 | -2.75341 | 18871 ft | 377 kts | 203° |
| 2026-05-05 20:26 | 53.26061 | -2.76880 | 19479 ft | 380 kts | 203° |
| 2026-05-05 20:26 | 53.23612 | -2.78406 | 20075 ft | 382 kts | 203° |
| 2026-05-05 20:26 | 53.21109 | -2.79964 | 20661 ft | 385 kts | 203° |
| 2026-05-05 20:26 | 53.18594 | -2.81528 | 21252 ft | 388 kts | 203° |
| 2026-05-05 20:27 | 53.16050 | -2.83105 | 21840 ft | 391 kts | 202° |
| 2026-05-05 20:27 | 53.13491 | -2.84688 | 22409 ft | 394 kts | 203° |
| 2026-05-05 20:27 | 53.10906 | -2.86261 | 22979 ft | 397 kts | 200° |
| 2026-05-05 20:27 | 53.08196 | -2.87306 | 23515 ft | 403 kts | 190° |
| 2026-05-05 20:28 | 53.05369 | -2.87516 | 23969 ft | 410 kts | 179° |
| 2026-05-05 20:28 | 53.02526 | -2.86904 | 24404 ft | 415 kts | 173° |
| 2026-05-05 20:28 | 52.99672 | -2.86104 | 24828 ft | 417 kts | 173° |
| 2026-05-05 20:28 | 52.96805 | -2.85313 | 25236 ft | 419 kts | 173° |
| 2026-05-05 20:29 | 52.93918 | -2.84531 | 25629 ft | 422 kts | 173° |
| 2026-05-05 20:29 | 52.91020 | -2.83754 | 26023 ft | 424 kts | 173° |
| 2026-05-05 20:29 | 52.88094 | -2.82972 | 26416 ft | 426 kts | 173° |
| 2026-05-05 20:29 | 52.85162 | -2.82188 | 26796 ft | 429 kts | 173° |
| 2026-05-05 20:30 | 52.82207 | -2.81396 | 27177 ft | 431 kts | 173° |
| 2026-05-05 20:30 | 52.79240 | -2.80599 | 27541 ft | 433 kts | 173° |
| 2026-05-05 20:30 | 52.76255 | -2.79799 | 27908 ft | 436 kts | 173° |
| 2026-05-05 20:30 | 52.73257 | -2.79001 | 28282 ft | 438 kts | 173° |
| 2026-05-05 20:31 | 52.70236 | -2.78190 | 28606 ft | 441 kts | 172° |
| 2026-05-05 20:31 | 52.67203 | -2.77373 | 28931 ft | 443 kts | 172° |
| 2026-05-05 20:31 | 52.64150 | -2.76551 | 29254 ft | 445 kts | 172° |
| 2026-05-05 20:31 | 52.61079 | -2.75951 | 29559 ft | 446 kts | 179° |
| 2026-05-05 20:32 | 52.57966 | -2.76045 | 29869 ft | 447 kts | 184° |
| 2026-05-05 20:32 | 52.54853 | -2.76323 | 30154 ft | 449 kts | 184° |
| 2026-05-05 20:32 | 52.51727 | -2.76602 | 30390 ft | 451 kts | 184° |
| 2026-05-05 20:32 | 52.48598 | -2.76876 | 30568 ft | 446 kts | 185° |
| 2026-05-05 20:33 | 52.45487 | -2.77144 | 30687 ft | 451 kts | 184° |
| 2026-05-05 20:33 | 52.42335 | -2.77415 | 30813 ft | 456 kts | 184° |
| 2026-05-05 20:33 | 52.39158 | -2.77691 | 30976 ft | 458 kts | 184° |
| 2026-05-05 20:34 | 52.32896 | -2.78230 | 31032 ft | 444 kts | 184° |
| 2026-05-05 20:34 | 52.26760 | -2.78763 | 31032 ft | 441 kts | 184° |
| 2026-05-05 20:35 | 52.20686 | -2.79291 | 31028 ft | 439 kts | 184° |
| 2026-05-05 20:35 | 52.14589 | -2.79806 | 31026 ft | 439 kts | 184° |
| 2026-05-05 20:36 | 52.08488 | -2.80311 | 31024 ft | 439 kts | 184° |
| 2026-05-05 20:36 | 52.02402 | -2.80825 | 31014 ft | 438 kts | 184° |
| 2026-05-05 20:37 | 51.96326 | -2.81346 | 31037 ft | 436 kts | 184° |
| 2026-05-05 20:37 | 51.90277 | -2.81867 | 31050 ft | 434 kts | 184° |
| 2026-05-05 20:38 | 51.84123 | -2.82438 | 31052 ft | 451 kts | 186° |
| 2026-05-05 20:38 | 51.77812 | -2.83647 | 31058 ft | 462 kts | 189° |
| 2026-05-05 20:39 | 51.71466 | -2.85199 | 31058 ft | 460 kts | 190° |
| 2026-05-05 20:39 | 51.65140 | -2.86677 | 31056 ft | 459 kts | 189° |
| 2026-05-05 20:40 | 51.58818 | -2.88020 | 31043 ft | 460 kts | 188° |
| 2026-05-05 20:40 | 51.52617 | -2.90298 | 31010 ft | 459 kts | 201° |
| 2026-05-05 20:41 | 51.46639 | -2.93901 | 30987 ft | 459 kts | 202° |
| 2026-05-05 20:41 | 51.40666 | -2.97506 | 30994 ft | 459 kts | 201° |
| 2026-05-05 20:42 | 51.34676 | -3.01089 | 30999 ft | 460 kts | 201° |
| 2026-05-05 20:42 | 51.28684 | -3.04657 | 30974 ft | 459 kts | 201° |
| 2026-05-05 20:43 | 51.22708 | -3.08211 | 31004 ft | 458 kts | 201° |
| 2026-05-05 20:43 | 51.16748 | -3.11744 | 31008 ft | 457 kts | 201° |
| 2026-05-05 20:44 | 51.10795 | -3.15268 | 31003 ft | 456 kts | 201° |
| 2026-05-05 20:44 | 51.04880 | -3.18748 | 31003 ft | 456 kts | 201° |
| 2026-05-05 20:45 | 50.95915 | -3.24015 | 31003 ft | 456 kts | 201° |
| 2026-05-05 20:45 | 50.90007 | -3.27474 | 31000 ft | 456 kts | 201° |
| 2026-05-05 20:46 | 50.84049 | -3.30956 | 30979 ft | 458 kts | 201° |
| 2026-05-05 20:46 | 50.78069 | -3.34438 | 30978 ft | 458 kts | 201° |
| 2026-05-05 20:47 | 50.72092 | -3.37921 | 30984 ft | 458 kts | 201° |
| 2026-05-05 20:47 | 50.66113 | -3.41379 | 30988 ft | 458 kts | 201° |
| 2026-05-05 20:48 | 50.60137 | -3.44817 | 30972 ft | 457 kts | 201° |
| 2026-05-05 20:48 | 50.53925 | -3.47000 | 30972 ft | 459 kts | 187° |
| 2026-05-05 20:49 | 50.47572 | -3.48075 | 30975 ft | 459 kts | 188° |
| 2026-05-05 20:49 | 50.41223 | -3.49145 | 30973 ft | 459 kts | 187° |
| 2026-05-05 20:50 | 50.34846 | -3.49905 | 30963 ft | 460 kts | 184° |
| 2026-05-05 20:50 | 50.28445 | -3.50150 | 30969 ft | 460 kts | 182° |
| 2026-05-05 20:51 | 50.22036 | -3.50322 | 30967 ft | 460 kts | 183° |
| 2026-05-05 20:51 | 50.15634 | -3.50632 | 30967 ft | 460 kts | 184° |
| 2026-05-05 20:52 | 50.09230 | -3.51024 | 30956 ft | 461 kts | 183° |
| 2026-05-05 20:52 | 50.02808 | -3.51402 | 30958 ft | 462 kts | 183° |
| 2026-05-05 20:53 | 49.96389 | -3.51747 | 30957 ft | 462 kts | 183° |
| 2026-05-05 20:53 | 49.89961 | -3.52082 | 30955 ft | 462 kts | 182° |
| 2026-05-05 20:54 | 49.83525 | -3.52411 | 30960 ft | 463 kts | 183° |
| 2026-05-05 20:54 | 49.77086 | -3.52757 | 30958 ft | 463 kts | 183° |
| 2026-05-05 20:55 | 49.70639 | -3.52954 | 30959 ft | 464 kts | 180° |
| 2026-05-05 20:55 | 49.64193 | -3.52486 | 30962 ft | 464 kts | 177° |
| 2026-05-05 20:56 | 49.57757 | -3.51802 | 30965 ft | 463 kts | 177° |
| 2026-05-05 20:56 | 49.51316 | -3.51236 | 30964 ft | 463 kts | 178° |
| 2026-05-05 20:57 | 49.44875 | -3.50785 | 30965 ft | 463 kts | 178° |
| 2026-05-05 20:57 | 49.38432 | -3.50355 | 30965 ft | 463 kts | 177° |
| 2026-05-05 20:58 | 49.31990 | -3.49895 | 30966 ft | 463 kts | 177° |
| 2026-05-05 20:58 | 49.25554 | -3.49408 | 30969 ft | 463 kts | 177° |
| 2026-05-05 20:59 | 49.19102 | -3.48934 | 30963 ft | 464 kts | 177° |
| 2026-05-05 20:59 | 49.12644 | -3.48466 | 30962 ft | 465 kts | 177° |
| 2026-05-05 21:00 | 49.07267 | -3.48073 | 30968 ft | 465 kts | 177° |
| 2026-05-05 21:00 | 49.00796 | -3.47611 | 30975 ft | 466 kts | 176° |
| 2026-05-05 21:01 | 48.94306 | -3.47153 | 30974 ft | 468 kts | 176° |
| 2026-05-05 21:01 | 48.87799 | -3.46682 | 30978 ft | 468 kts | 176° |
| 2026-05-05 21:02 | 48.81286 | -3.46211 | 30982 ft | 469 kts | 176° |
| 2026-05-05 21:02 | 48.74766 | -3.45752 | 30984 ft | 469 kts | 176° |
| 2026-05-05 21:03 | 48.68243 | -3.45287 | 30986 ft | 470 kts | 176° |
| 2026-05-05 21:03 | 48.61715 | -3.44814 | 30987 ft | 470 kts | 176° |
| 2026-05-05 21:04 | 48.55183 | -3.44350 | 30995 ft | 470 kts | 176° |
| 2026-05-05 21:04 | 48.48653 | -3.43886 | 30986 ft | 470 kts | 176° |
| 2026-05-05 21:05 | 48.42112 | -3.43427 | 30989 ft | 470 kts | 176° |
| 2026-05-05 21:05 | 48.35572 | -3.42965 | 31002 ft | 471 kts | 176° |
| 2026-05-05 21:06 | 48.29026 | -3.42507 | 30995 ft | 471 kts | 176° |
| 2026-05-05 21:06 | 48.22519 | -3.42046 | 30994 ft | 471 kts | 176° |
| 2026-05-05 21:07 | 48.15966 | -3.41582 | 30998 ft | 472 kts | 176° |
| 2026-05-05 21:07 | 48.09410 | -3.41132 | 30996 ft | 472 kts | 176° |
| 2026-05-05 21:08 | 48.02853 | -3.40680 | 30995 ft | 472 kts | 176° |
| 2026-05-05 21:08 | 47.96293 | -3.40231 | 30995 ft | 472 kts | 176° |
| 2026-05-05 21:09 | 47.89740 | -3.39783 | 30998 ft | 472 kts | 175° |
| 2026-05-05 21:09 | 47.83185 | -3.39334 | 30987 ft | 471 kts | 175° |
| 2026-05-05 21:10 | 47.76638 | -3.38876 | 30969 ft | 471 kts | 175° |
| 2026-05-05 21:10 | 47.70088 | -3.38415 | 30968 ft | 471 kts | 175° |
| 2026-05-05 21:11 | 47.63529 | -3.37975 | 30971 ft | 472 kts | 175° |
| 2026-05-05 21:11 | 47.56970 | -3.37535 | 30971 ft | 472 kts | 175° |
| 2026-05-05 21:12 | 47.50407 | -3.37090 | 30973 ft | 472 kts | 175° |
| 2026-05-05 21:12 | 47.43841 | -3.36631 | 30965 ft | 473 kts | 175° |
| 2026-05-05 21:13 | 47.37255 | -3.36180 | 30966 ft | 474 kts | 175° |
| 2026-05-05 21:13 | 47.30664 | -3.35747 | 30972 ft | 475 kts | 175° |
| 2026-05-05 21:14 | 47.24062 | -3.35305 | 30963 ft | 475 kts | 175° |
| 2026-05-05 21:14 | 47.17451 | -3.34851 | 30965 ft | 476 kts | 175° |
| 2026-05-05 21:15 | 47.10840 | -3.34410 | 30973 ft | 476 kts | 175° |
| 2026-05-05 21:15 | 47.04353 | -3.33983 | 30976 ft | 450 kts | 175° |
| 2026-05-05 21:16 | 46.98193 | -3.33579 | 30974 ft | 440 kts | 174° |
| 2026-05-05 21:16 | 46.92085 | -3.33168 | 30989 ft | 439 kts | 174° |
| 2026-05-05 21:17 | 46.85990 | -3.32756 | 30975 ft | 438 kts | 174° |
| 2026-05-05 21:17 | 46.79902 | -3.32354 | 30975 ft | 438 kts | 174° |
| 2026-05-05 21:18 | 46.73821 | -3.31946 | 30970 ft | 437 kts | 174° |
| 2026-05-05 21:18 | 46.67746 | -3.31547 | 30965 ft | 437 kts | 174° |
| 2026-05-05 21:19 | 46.61664 | -3.31150 | 30965 ft | 437 kts | 174° |
| 2026-05-05 21:19 | 46.55589 | -3.30744 | 30962 ft | 437 kts | 174° |
| 2026-05-05 21:20 | 46.49564 | -3.30347 | 30974 ft | 437 kts | 174° |
| 2026-05-05 21:20 | 46.43455 | -3.29959 | 30970 ft | 436 kts | 174° |
| 2026-05-05 21:21 | 46.37433 | -3.29570 | 30960 ft | 436 kts | 174° |
| 2026-05-05 21:21 | 46.31376 | -3.29177 | 30973 ft | 436 kts | 174° |
| 2026-05-05 21:22 | 46.25327 | -3.28783 | 30955 ft | 436 kts | 174° |
| 2026-05-05 21:22 | 46.19252 | -3.28380 | 30951 ft | 436 kts | 174° |
| 2026-05-05 21:23 | 46.13430 | -3.28008 | 30950 ft | 436 kts | 174° |
| 2026-05-05 21:23 | 46.07679 | -3.27637 | 30952 ft | 437 kts | 174° |
| 2026-05-05 21:24 | 46.01589 | -3.27244 | 30945 ft | 438 kts | 174° |
| 2026-05-05 21:24 | 45.95494 | -3.26850 | 30944 ft | 439 kts | 174° |
| 2026-05-05 21:25 | 45.89393 | -3.26462 | 30948 ft | 439 kts | 174° |
| 2026-05-05 21:25 | 45.83286 | -3.26069 | 30944 ft | 440 kts | 174° |
| 2026-05-05 21:26 | 45.77152 | -3.25675 | 30948 ft | 441 kts | 174° |
| 2026-05-05 21:26 | 45.71022 | -3.25287 | 30954 ft | 441 kts | 174° |
| 2026-05-05 21:27 | 45.64881 | -3.24896 | 30948 ft | 442 kts | 174° |
| 2026-05-05 21:27 | 45.58734 | -3.24504 | 30949 ft | 443 kts | 174° |
| 2026-05-05 21:28 | 45.52560 | -3.24117 | 30956 ft | 444 kts | 174° |
| 2026-05-05 21:28 | 45.46371 | -3.23725 | 30959 ft | 444 kts | 174° |
| 2026-05-05 21:29 | 45.40209 | -3.23333 | 30960 ft | 444 kts | 174° |
| 2026-05-05 21:29 | 45.34126 | -3.22958 | 30962 ft | 445 kts | 174° |
| 2026-05-05 21:30 | 45.27836 | -3.22566 | 30974 ft | 444 kts | 175° |
| 2026-05-05 21:30 | 45.21659 | -3.22173 | 30974 ft | 444 kts | 175° |
| 2026-05-05 21:31 | 45.15491 | -3.21783 | 30976 ft | 444 kts | 175° |
| 2026-05-05 21:31 | 45.09367 | -3.21407 | 30983 ft | 444 kts | 176° |
| 2026-05-05 21:32 | 45.03157 | -3.21022 | 30980 ft | 444 kts | 176° |
| 2026-05-05 21:32 | 44.97034 | -3.20642 | 30983 ft | 443 kts | 176° |
| 2026-05-05 21:33 | 44.90823 | -3.20252 | 30980 ft | 443 kts | 176° |
| 2026-05-05 21:33 | 44.87801 | -3.20069 | 30601 ft | 440 kts | 176° |
| 2026-05-05 21:33 | 44.84698 | -3.19882 | 29763 ft | 441 kts | 175° |
| 2026-05-05 21:34 | 44.81668 | -3.19694 | 28976 ft | 439 kts | 176° |
| 2026-05-05 21:34 | 44.78639 | -3.19507 | 28311 ft | 435 kts | 176° |
| 2026-05-05 21:34 | 44.75639 | -3.19319 | 27666 ft | 431 kts | 176° |
| 2026-05-05 21:34 | 44.72681 | -3.19134 | 27033 ft | 428 kts | 176° |
| 2026-05-05 21:35 | 44.69679 | -3.18943 | 26406 ft | 424 kts | 176° |
| 2026-05-05 21:35 | 44.66741 | -3.18755 | 25794 ft | 421 kts | 176° |
| 2026-05-05 21:35 | 44.63823 | -3.18571 | 25189 ft | 418 kts | 176° |
| 2026-05-05 21:35 | 44.60922 | -3.18393 | 24628 ft | 415 kts | 177° |
| 2026-05-05 21:36 | 44.58070 | -3.18222 | 24087 ft | 412 kts | 177° |
| 2026-05-05 21:36 | 44.55192 | -3.18051 | 23535 ft | 409 kts | 178° |
| 2026-05-05 21:36 | 44.52441 | -3.17887 | 22949 ft | 406 kts | 177° |
| 2026-05-05 21:36 | 44.49569 | -3.17713 | 22358 ft | 403 kts | 177° |
| 2026-05-05 21:37 | 44.46753 | -3.17541 | 21833 ft | 400 kts | 178° |
| 2026-05-05 21:37 | 44.44000 | -3.17376 | 21326 ft | 396 kts | 178° |
| 2026-05-05 21:37 | 44.41245 | -3.17211 | 21020 ft | 396 kts | 178° |
| 2026-05-05 21:37 | 44.38495 | -3.17047 | 21004 ft | 396 kts | 178° |
| 2026-05-05 21:38 | 44.35741 | -3.16879 | 21015 ft | 397 kts | 178° |
| 2026-05-05 21:38 | 44.32972 | -3.16707 | 21005 ft | 397 kts | 178° |
| 2026-05-05 21:38 | 44.30220 | -3.16538 | 21003 ft | 396 kts | 178° |
| 2026-05-05 21:38 | 44.27471 | -3.16368 | 21006 ft | 396 kts | 178° |
| 2026-05-05 21:39 | 44.24720 | -3.16201 | 21022 ft | 396 kts | 178° |
| 2026-05-05 21:39 | 44.21972 | -3.16035 | 21005 ft | 397 kts | 178° |
| 2026-05-05 21:39 | 44.19199 | -3.15866 | 21008 ft | 397 kts | 178° |
| 2026-05-05 21:39 | 44.16438 | -3.15699 | 21013 ft | 396 kts | 178° |
| 2026-05-05 21:40 | 44.13688 | -3.15533 | 21017 ft | 396 kts | 178° |
| 2026-05-05 21:40 | 44.10929 | -3.15367 | 21017 ft | 397 kts | 178° |
| 2026-05-05 21:40 | 44.08212 | -3.15203 | 21028 ft | 397 kts | 178° |
| 2026-05-05 21:40 | 44.05425 | -3.14977 | 21012 ft | 397 kts | 174° |
| 2026-05-05 21:41 | 44.02698 | -3.14322 | 21028 ft | 397 kts | 168° |
| 2026-05-05 21:41 | 43.99995 | -3.13538 | 21020 ft | 396 kts | 168° |
| 2026-05-05 21:41 | 43.97291 | -3.12755 | 21020 ft | 397 kts | 168° |
| 2026-05-05 21:41 | 43.94595 | -3.11975 | 21025 ft | 397 kts | 168° |
| 2026-05-05 21:42 | 43.91884 | -3.11189 | 21021 ft | 398 kts | 168° |
| 2026-05-05 21:42 | 43.89173 | -3.10406 | 21034 ft | 398 kts | 169° |
| 2026-05-05 21:42 | 43.86465 | -3.09628 | 21031 ft | 397 kts | 169° |
| 2026-05-05 21:42 | 43.83818 | -3.08866 | 21040 ft | 397 kts | 169° |
| 2026-05-05 21:43 | 43.81055 | -3.08069 | 20925 ft | 394 kts | 168° |
| 2026-05-05 21:43 | 43.78378 | -3.07299 | 20380 ft | 392 kts | 169° |
| 2026-05-05 21:43 | 43.75721 | -3.06537 | 19867 ft | 389 kts | 169° |
| 2026-05-05 21:43 | 43.73072 | -3.05768 | 19324 ft | 388 kts | 167° |
| 2026-05-05 21:44 | 43.70557 | -3.04477 | 18767 ft | 385 kts | 152° |
| 2026-05-05 21:44 | 43.68410 | -3.02298 | 18289 ft | 382 kts | 135° |
| 2026-05-05 21:44 | 43.66773 | -2.99435 | 17712 ft | 379 kts | 118° |
| 2026-05-05 21:44 | 43.65754 | -2.96114 | 17213 ft | 374 kts | 103° |
| 2026-05-05 21:45 | 43.65388 | -2.92600 | 16718 ft | 367 kts | 89° |
| 2026-05-05 21:45 | 43.65279 | -2.89081 | 16193 ft | 366 kts | 92° |
| 2026-05-05 21:45 | 43.65001 | -2.85592 | 15684 ft | 366 kts | 97° |
| 2026-05-05 21:45 | 43.64539 | -2.82153 | 15223 ft | 364 kts | 101° |
| 2026-05-05 21:46 | 43.64133 | -2.79912 | 14933 ft | 361 kts | 104° |
| 2026-05-05 21:46 | 43.63381 | -2.76605 | 14456 ft | 361 kts | 108° |
| 2026-05-05 21:46 | 43.62467 | -2.73387 | 13995 ft | 360 kts | 112° |
| 2026-05-05 21:46 | 43.61407 | -2.70320 | 13870 ft | 347 kts | 117° |
| 2026-05-05 21:47 | 43.59834 | -2.66592 | 13687 ft | 332 kts | 123° |
| 2026-05-05 21:47 | 43.58536 | -2.64019 | 13526 ft | 322 kts | 127° |
| 2026-05-05 21:47 | 43.57154 | -2.61615 | 13234 ft | 317 kts | 131° |
| 2026-05-05 21:47 | 43.55684 | -2.59365 | 12880 ft | 315 kts | 135° |
| 2026-05-05 21:48 | 43.54638 | -2.57924 | 12612 ft | 314 kts | 137° |
| 2026-05-05 21:48 | 43.53015 | -2.55912 | 12227 ft | 313 kts | 141° |
| 2026-05-05 21:48 | 43.51313 | -2.54051 | 11854 ft | 311 kts | 144° |
| 2026-05-05 21:48 | 43.49542 | -2.52354 | 11487 ft | 309 kts | 148° |
| 2026-05-05 21:49 | 43.47715 | -2.50827 | 11154 ft | 306 kts | 152° |
| 2026-05-05 21:49 | 43.45841 | -2.49458 | 10789 ft | 304 kts | 155° |
| 2026-05-05 21:49 | 43.43920 | -2.48251 | 10398 ft | 303 kts | 159° |
| 2026-05-05 21:49 | 43.41954 | -2.47221 | 10021 ft | 302 kts | 163° |
| 2026-05-05 21:50 | 43.39955 | -2.46369 | 9635 ft | 299 kts | 166° |
| 2026-05-05 21:50 | 43.37949 | -2.45685 | 9264 ft | 295 kts | 170° |
| 2026-05-05 21:50 | 43.35938 | -2.45167 | 8861 ft | 293 kts | 173° |
| 2026-05-05 21:50 | 43.33924 | -2.44821 | 8451 ft | 291 kts | 177° |
| 2026-05-05 21:51 | 43.31926 | -2.44634 | 8040 ft | 288 kts | 180° |
| 2026-05-05 21:51 | 43.29927 | -2.44604 | 7667 ft | 285 kts | 184° |
| 2026-05-05 21:51 | 43.27992 | -2.44728 | 7550 ft | 272 kts | 187° |
| 2026-05-05 21:51 | 43.26156 | -2.44978 | 7419 ft | 257 kts | 190° |
| 2026-05-05 21:52 | 43.22841 | -2.45754 | 7121 ft | 229 kts | 196° |
| 2026-05-05 21:52 | 43.21312 | -2.46271 | 6684 ft | 225 kts | 200° |
| 2026-05-05 21:52 | 43.19910 | -2.47139 | 6167 ft | 219 kts | 218° |
| 2026-05-05 21:53 | 43.18784 | -2.48513 | 5851 ft | 214 kts | 234° |
| 2026-05-05 21:53 | 43.17858 | -2.50096 | 5548 ft | 212 kts | 234° |
| 2026-05-05 21:53 | 43.17095 | -2.51792 | 5244 ft | 207 kts | 254° |
| 2026-05-05 21:53 | 43.16826 | -2.53677 | 5066 ft | 200 kts | 273° |
| 2026-05-05 21:54 | 43.17039 | -2.55534 | 4998 ft | 196 kts | 291° |
| 2026-05-05 21:54 | 43.17619 | -2.57227 | 5008 ft | 197 kts | 298° |
| 2026-05-05 21:54 | 43.18233 | -2.58876 | 5014 ft | 189 kts | 298° |
| 2026-05-05 21:54 | 43.18805 | -2.60417 | 5030 ft | 178 kts | 298° |
| 2026-05-05 21:55 | 43.19360 | -2.61911 | 5009 ft | 175 kts | 298° |
| 2026-05-05 21:55 | 43.19910 | -2.63397 | 4966 ft | 175 kts | 297° |
| 2026-05-05 21:55 | 43.20462 | -2.64886 | 4756 ft | 176 kts | 297° |
| 2026-05-05 21:55 | 43.21014 | -2.66375 | 4511 ft | 175 kts | 297° |
| 2026-05-05 21:56 | 43.21555 | -2.67837 | 4250 ft | 168 kts | 297° |
| 2026-05-05 21:56 | 43.22058 | -2.69199 | 4020 ft | 158 kts | 297° |
| 2026-05-05 21:56 | 43.22545 | -2.70515 | 3774 ft | 153 kts | 297° |
| 2026-05-05 21:56 | 43.23021 | -2.71805 | 3541 ft | 151 kts | 296° |
| 2026-05-05 21:57 | 43.23495 | -2.73088 | 3307 ft | 150 kts | 296° |
| 2026-05-05 21:57 | 43.23973 | -2.74383 | 3066 ft | 151 kts | 296° |
| 2026-05-05 21:57 | 43.24444 | -2.75658 | 2838 ft | 152 kts | 296° |
| 2026-05-05 21:57 | 43.24925 | -2.76962 | 2592 ft | 154 kts | 296° |
| 2026-05-05 21:58 | 43.25409 | -2.78276 | 2368 ft | 155 kts | 296° |
| 2026-05-05 21:58 | 43.25893 | -2.79589 | 2122 ft | 155 kts | 296° |
| 2026-05-05 21:58 | 43.26357 | -2.80849 | 1882 ft | 141 kts | 296° |
| 2026-05-05 21:58 | 43.26787 | -2.82018 | 1654 ft | 135 kts | 296° |
| 2026-05-05 21:59 | 43.27205 | -2.83159 | 1430 ft | 133 kts | 296° |
| 2026-05-05 21:59 | 43.27615 | -2.84297 | 1194 ft | 133 kts | 296° |
| 2026-05-05 21:59 | 43.28023 | -2.85408 | 965 ft | 127 kts | 298° |
| 2026-05-05 21:59 | 43.28433 | -2.86450 | 750 ft | 123 kts | 299° |
| 2026-05-05 22:00 | 43.28835 | -2.87507 | 518 ft | 121 kts | 295° |
| 2026-05-05 22:00 | 43.29180 | -2.88514 | 360 ft | 113 kts | 295° |
| 2026-05-05 22:00 | 43.29571 | -2.89590 | 286 ft | 139 kts | 296° |
| 2026-05-05 22:00 | 43.29984 | -2.90735 | 127 ft | 121 kts | 301° |
| 2026-05-05 22:01 | 43.30296 | -2.91563 | 123 ft | 76 kts | 296° |
| 2026-05-05 22:01 | 43.30454 | -2.91918 | 124 ft | 23 kts | 322° |
| 2026-05-05 22:01 | 43.30584 | -2.92041 | 132 ft | 14 kts | 333° |
| 2026-05-05 22:01 | 43.30626 | -2.91969 | 132 ft | 13 kts | 104° |
| 2026-05-05 22:02 | 43.30583 | -2.91841 | 132 ft | 17 kts | 118° |
| 2026-05-05 22:02 | 43.30481 | -2.91560 | 132 ft | 47 kts | 116° |
| 2026-05-05 22:02 | 43.30348 | -2.91194 | 132 ft | 32 kts | 117° |
| 2026-05-05 22:02 | 43.30307 | -2.91062 | 132 ft | 5 kts | 82° |
| 2026-05-05 22:03 | 43.30405 | -2.90975 | 132 ft | 10 kts | 352° |
| 2026-05-05 22:03 | 43.30467 | -2.90980 | 132 ft | 0 kts | 358° |